sensor_id;sensor_type;location;lat;lon;timestamp;P1;durP1;ratioP1;P2;durP2;ratioP2
53309;SDS011;39197;53.200;5.792;2022-10-18T00:01:53;40.33;;;20.10;;
53309;SDS011;39197;53.200;5.792;2022-10-18T00:04:19;34.00;;;19.30;;
53309;SDS011;39197;53.200;5.792;2022-10-18T00:06:45;37.70;;;20.73;;
53309;SDS011;39197;53.200;5.792;2022-10-18T00:09:10;43.92;;;22.10;;
53309;SDS011;39197;53.200;5.792;2022-10-18T00:11:36;39.00;;;19.95;;
53309;SDS011;39197;53.200;5.792;2022-10-18T00:14:02;35.72;;;19.98;;
53309;SDS011;39197;53.200;5.792;2022-10-18T00:16:27;33.53;;;18.30;;
53309;SDS011;39197;53.200;5.792;2022-10-18T00:18:53;35.53;;;17.80;;
53309;SDS011;39197;53.200;5.792;2022-10-18T00:21:20;31.98;;;17.77;;
53309;SDS011;39197;53.200;5.792;2022-10-18T00:23:47;34.30;;;20.20;;
53309;SDS011;39197;53.200;5.792;2022-10-18T00:26:14;36.88;;;21.02;;
53309;SDS011;39197;53.200;5.792;2022-10-18T00:28:42;41.08;;;20.67;;
53309;SDS011;39197;53.200;5.792;2022-10-18T00:31:12;42.30;;;19.73;;
53309;SDS011;39197;53.200;5.792;2022-10-18T00:33:40;38.42;;;17.10;;
53309;SDS011;39197;53.200;5.792;2022-10-18T00:36:07;44.25;;;21.55;;
53309;SDS011;39197;53.200;5.792;2022-10-18T00:38:33;47.60;;;22.42;;
53309;SDS011;39197;53.200;5.792;2022-10-18T00:40:59;44.70;;;22.35;;
53309;SDS011;39197;53.200;5.792;2022-10-18T00:43:25;48.05;;;21.45;;
53309;SDS011;39197;53.200;5.792;2022-10-18T00:45:51;43.70;;;22.92;;
53309;SDS011;39197;53.200;5.792;2022-10-18T00:48:17;52.83;;;22.50;;
53309;SDS011;39197;53.200;5.792;2022-10-18T00:50:44;45.90;;;23.15;;
53309;SDS011;39197;53.200;5.792;2022-10-18T00:53:14;44.38;;;23.38;;
53309;SDS011;39197;53.200;5.792;2022-10-18T00:55:41;67.78;;;25.38;;
53309;SDS011;39197;53.200;5.792;2022-10-18T00:58:08;65.03;;;24.63;;
53309;SDS011;39197;53.200;5.792;2022-10-18T01:00:35;75.68;;;25.25;;
53309;SDS011;39197;53.200;5.792;2022-10-18T01:03:03;66.95;;;24.58;;
53309;SDS011;39197;53.200;5.792;2022-10-18T01:05:29;40.80;;;16.30;;
53309;SDS011;39197;53.200;5.792;2022-10-18T01:14:06;89.15;;;26.70;;
53309;SDS011;39197;53.200;5.792;2022-10-18T01:22:04;68.93;;;21.55;;
53309;SDS011;39197;53.200;5.792;2022-10-18T01:35:48;86.88;;;22.80;;
53309;SDS011;39197;53.200;5.792;2022-10-18T01:38:44;86.55;;;24.17;;
53309;SDS011;39197;53.200;5.792;2022-10-18T01:41:12;54.08;;;18.75;;
53309;SDS011;39197;53.200;5.792;2022-10-18T01:43:40;65.03;;;19.95;;
53309;SDS011;39197;53.200;5.792;2022-10-18T01:46:07;51.53;;;22.65;;
53309;SDS011;39197;53.200;5.792;2022-10-18T01:48:34;57.45;;;22.20;;
53309;SDS011;39197;53.200;5.792;2022-10-18T01:51:02;33.85;;;17.52;;
53309;SDS011;39197;53.200;5.792;2022-10-18T01:53:32;50.25;;;19.45;;
53309;SDS011;39197;53.200;5.792;2022-10-18T01:56:04;45.60;;;16.70;;
53309;SDS011;39197;53.200;5.792;2022-10-18T02:01:34;47.95;;;19.30;;
53309;SDS011;39197;53.200;5.792;2022-10-18T02:04:16;38.08;;;18.05;;
53309;SDS011;39197;53.200;5.792;2022-10-18T02:06:51;89.10;;;20.85;;
53309;SDS011;39197;53.200;5.792;2022-10-18T02:09:24;93.53;;;24.88;;
53309;SDS011;39197;53.200;5.792;2022-10-18T02:12:00;50.75;;;20.98;;
53309;SDS011;39197;53.200;5.792;2022-10-18T02:14:27;34.97;;;14.65;;
53309;SDS011;39197;53.200;5.792;2022-10-18T02:16:54;32.55;;;13.80;;
53309;SDS011;39197;53.200;5.792;2022-10-18T02:22:21;37.22;;;18.20;;
53309;SDS011;39197;53.200;5.792;2022-10-18T02:24:52;25.80;;;13.35;;
53309;SDS011;39197;53.200;5.792;2022-10-18T02:27:20;35.78;;;15.80;;
53309;SDS011;39197;53.200;5.792;2022-10-18T02:29:46;24.75;;;11.63;;
53309;SDS011;39197;53.200;5.792;2022-10-18T02:34:50;30.55;;;15.20;;
53309;SDS011;39197;53.200;5.792;2022-10-18T02:37:25;27.92;;;15.25;;
53309;SDS011;39197;53.200;5.792;2022-10-18T02:39:57;27.60;;;13.80;;
53309;SDS011;39197;53.200;5.792;2022-10-18T02:42:23;28.88;;;12.88;;
53309;SDS011;39197;53.200;5.792;2022-10-18T02:44:48;23.02;;;11.48;;
53309;SDS011;39197;53.200;5.792;2022-10-18T02:47:14;23.00;;;11.15;;
53309;SDS011;39197;53.200;5.792;2022-10-18T02:49:39;24.45;;;11.23;;
53309;SDS011;39197;53.200;5.792;2022-10-18T02:52:05;26.45;;;11.20;;
53309;SDS011;39197;53.200;5.792;2022-10-18T02:54:30;27.30;;;13.10;;
53309;SDS011;39197;53.200;5.792;2022-10-18T02:56:56;18.85;;;10.60;;
53309;SDS011;39197;53.200;5.792;2022-10-18T02:59:22;23.67;;;12.55;;
53309;SDS011;39197;53.200;5.792;2022-10-18T03:01:47;28.13;;;13.70;;
53309;SDS011;39197;53.200;5.792;2022-10-18T03:04:13;24.90;;;13.05;;
53309;SDS011;39197;53.200;5.792;2022-10-18T03:06:38;26.85;;;12.77;;
53309;SDS011;39197;53.200;5.792;2022-10-18T03:09:04;25.58;;;10.55;;
53309;SDS011;39197;53.200;5.792;2022-10-18T03:11:30;22.75;;;10.55;;
53309;SDS011;39197;53.200;5.792;2022-10-18T03:13:56;20.85;;;11.70;;
53309;SDS011;39197;53.200;5.792;2022-10-18T03:16:22;24.48;;;10.52;;
53309;SDS011;39197;53.200;5.792;2022-10-18T03:18:47;22.80;;;10.73;;
53309;SDS011;39197;53.200;5.792;2022-10-18T03:21:13;30.10;;;9.68;;
53309;SDS011;39197;53.200;5.792;2022-10-18T03:23:38;24.50;;;10.23;;
53309;SDS011;39197;53.200;5.792;2022-10-18T03:26:06;27.85;;;10.15;;
53309;SDS011;39197;53.200;5.792;2022-10-18T03:28:31;25.42;;;9.57;;
53309;SDS011;39197;53.200;5.792;2022-10-18T03:31:01;23.50;;;8.93;;
53309;SDS011;39197;53.200;5.792;2022-10-18T03:33:28;27.77;;;8.88;;
53309;SDS011;39197;53.200;5.792;2022-10-18T03:35:54;21.02;;;8.02;;
53309;SDS011;39197;53.200;5.792;2022-10-18T03:38:20;28.05;;;10.85;;
53309;SDS011;39197;53.200;5.792;2022-10-18T03:40:46;21.40;;;8.43;;
53309;SDS011;39197;53.200;5.792;2022-10-18T03:43:11;34.65;;;9.68;;
53309;SDS011;39197;53.200;5.792;2022-10-18T03:45:38;20.33;;;6.60;;
53309;SDS011;39197;53.200;5.792;2022-10-18T03:48:04;28.23;;;7.53;;
53309;SDS011;39197;53.200;5.792;2022-10-18T03:50:29;28.10;;;6.88;;
53309;SDS011;39197;53.200;5.792;2022-10-18T03:52:55;25.58;;;8.60;;
53309;SDS011;39197;53.200;5.792;2022-10-18T03:55:20;23.45;;;7.68;;
53309;SDS011;39197;53.200;5.792;2022-10-18T03:57:46;27.15;;;9.60;;
53309;SDS011;39197;53.200;5.792;2022-10-18T04:00:12;19.55;;;5.32;;
53309;SDS011;39197;53.200;5.792;2022-10-18T04:02:38;16.23;;;5.50;;
53309;SDS011;39197;53.200;5.792;2022-10-18T04:05:03;15.13;;;6.75;;
53309;SDS011;39197;53.200;5.792;2022-10-18T04:07:29;22.98;;;7.40;;
53309;SDS011;39197;53.200;5.792;2022-10-18T04:09:55;16.95;;;7.05;;
53309;SDS011;39197;53.200;5.792;2022-10-18T04:12:20;19.15;;;8.63;;
53309;SDS011;39197;53.200;5.792;2022-10-18T04:14:46;19.40;;;7.60;;
53309;SDS011;39197;53.200;5.792;2022-10-18T04:17:11;17.88;;;8.07;;
53309;SDS011;39197;53.200;5.792;2022-10-18T04:19:37;20.10;;;7.43;;
53309;SDS011;39197;53.200;5.792;2022-10-18T04:22:03;20.38;;;8.00;;
53309;SDS011;39197;53.200;5.792;2022-10-18T04:24:28;16.48;;;7.35;;
53309;SDS011;39197;53.200;5.792;2022-10-18T04:26:54;19.13;;;8.75;;
53309;SDS011;39197;53.200;5.792;2022-10-18T04:29:19;20.60;;;9.48;;
53309;SDS011;39197;53.200;5.792;2022-10-18T04:31:45;17.92;;;8.43;;
53309;SDS011;39197;53.200;5.792;2022-10-18T04:34:10;20.85;;;9.35;;
53309;SDS011;39197;53.200;5.792;2022-10-18T04:36:36;25.52;;;9.55;;
53309;SDS011;39197;53.200;5.792;2022-10-18T04:39:02;22.52;;;11.50;;
53309;SDS011;39197;53.200;5.792;2022-10-18T04:41:27;24.15;;;9.25;;
53309;SDS011;39197;53.200;5.792;2022-10-18T04:43:53;14.93;;;7.38;;
53309;SDS011;39197;53.200;5.792;2022-10-18T04:46:18;20.40;;;9.85;;
53309;SDS011;39197;53.200;5.792;2022-10-18T04:48:44;18.98;;;9.52;;
53309;SDS011;39197;53.200;5.792;2022-10-18T04:51:09;25.02;;;10.10;;
53309;SDS011;39197;53.200;5.792;2022-10-18T04:53:35;14.93;;;8.65;;
53309;SDS011;39197;53.200;5.792;2022-10-18T04:56:00;19.63;;;9.07;;
53309;SDS011;39197;53.200;5.792;2022-10-18T04:58:26;21.90;;;7.75;;
53309;SDS011;39197;53.200;5.792;2022-10-18T05:00:52;23.13;;;9.73;;
53309;SDS011;39197;53.200;5.792;2022-10-18T05:03:17;15.32;;;7.05;;
53309;SDS011;39197;53.200;5.792;2022-10-18T05:05:43;23.13;;;8.93;;
53309;SDS011;39197;53.200;5.792;2022-10-18T05:08:10;16.15;;;9.52;;
53309;SDS011;39197;53.200;5.792;2022-10-18T05:10:36;20.17;;;7.57;;
53309;SDS011;39197;53.200;5.792;2022-10-18T05:13:02;18.05;;;10.82;;
53309;SDS011;39197;53.200;5.792;2022-10-18T05:15:27;19.77;;;10.63;;
53309;SDS011;39197;53.200;5.792;2022-10-18T05:17:53;22.85;;;10.48;;
53309;SDS011;39197;53.200;5.792;2022-10-18T05:20:18;20.27;;;9.07;;
53309;SDS011;39197;53.200;5.792;2022-10-18T05:22:44;17.58;;;8.60;;
53309;SDS011;39197;53.200;5.792;2022-10-18T05:25:10;20.30;;;7.88;;
53309;SDS011;39197;53.200;5.792;2022-10-18T05:27:35;15.63;;;8.40;;
53309;SDS011;39197;53.200;5.792;2022-10-18T05:30:01;17.77;;;7.95;;
53309;SDS011;39197;53.200;5.792;2022-10-18T05:32:27;17.30;;;8.18;;
53309;SDS011;39197;53.200;5.792;2022-10-18T05:34:53;20.13;;;8.40;;
53309;SDS011;39197;53.200;5.792;2022-10-18T05:37:19;24.05;;;9.27;;
53309;SDS011;39197;53.200;5.792;2022-10-18T05:39:45;18.15;;;8.25;;
53309;SDS011;39197;53.200;5.792;2022-10-18T05:42:11;18.88;;;8.63;;
53309;SDS011;39197;53.200;5.792;2022-10-18T05:44:36;15.00;;;6.18;;
53309;SDS011;39197;53.200;5.792;2022-10-18T05:47:02;21.95;;;8.02;;
53309;SDS011;39197;53.200;5.792;2022-10-18T05:49:27;20.50;;;7.03;;
53309;SDS011;39197;53.200;5.792;2022-10-18T05:51:53;16.38;;;6.85;;
53309;SDS011;39197;53.200;5.792;2022-10-18T05:54:19;16.75;;;4.90;;
53309;SDS011;39197;53.200;5.792;2022-10-18T05:56:45;19.05;;;6.40;;
53309;SDS011;39197;53.200;5.792;2022-10-18T05:59:10;20.13;;;7.07;;
53309;SDS011;39197;53.200;5.792;2022-10-18T06:01:37;16.00;;;6.53;;
53309;SDS011;39197;53.200;5.792;2022-10-18T06:04:03;17.77;;;5.80;;
53309;SDS011;39197;53.200;5.792;2022-10-18T06:06:29;14.80;;;4.88;;
53309;SDS011;39197;53.200;5.792;2022-10-18T06:08:56;13.45;;;5.88;;
53309;SDS011;39197;53.200;5.792;2022-10-18T06:11:22;19.38;;;4.85;;
53309;SDS011;39197;53.200;5.792;2022-10-18T06:13:49;11.35;;;4.10;;
53309;SDS011;39197;53.200;5.792;2022-10-18T06:16:16;17.15;;;5.30;;
53309;SDS011;39197;53.200;5.792;2022-10-18T06:18:46;15.95;;;6.18;;
53309;SDS011;39197;53.200;5.792;2022-10-18T06:21:13;15.68;;;6.45;;
53309;SDS011;39197;53.200;5.792;2022-10-18T06:23:38;16.05;;;7.18;;
53309;SDS011;39197;53.200;5.792;2022-10-18T06:26:05;16.20;;;4.93;;
53309;SDS011;39197;53.200;5.792;2022-10-18T06:28:32;10.25;;;3.88;;
53309;SDS011;39197;53.200;5.792;2022-10-18T06:30:59;15.90;;;6.07;;
53309;SDS011;39197;53.200;5.792;2022-10-18T06:33:25;15.25;;;5.57;;
53309;SDS011;39197;53.200;5.792;2022-10-18T06:35:54;20.05;;;5.78;;
53309;SDS011;39197;53.200;5.792;2022-10-18T06:38:21;19.38;;;4.82;;
53309;SDS011;39197;53.200;5.792;2022-10-18T06:40:47;23.63;;;5.15;;
53309;SDS011;39197;53.200;5.792;2022-10-18T06:43:13;10.15;;;4.50;;
53309;SDS011;39197;53.200;5.792;2022-10-18T06:45:38;15.90;;;4.47;;
53309;SDS011;39197;53.200;5.792;2022-10-18T06:48:04;11.07;;;4.57;;
53309;SDS011;39197;53.200;5.792;2022-10-18T06:50:30;17.90;;;4.15;;
53309;SDS011;39197;53.200;5.792;2022-10-18T06:52:55;14.75;;;3.97;;
53309;SDS011;39197;53.200;5.792;2022-10-18T06:55:21;20.02;;;3.95;;
53309;SDS011;39197;53.200;5.792;2022-10-18T06:57:47;16.83;;;4.22;;
53309;SDS011;39197;53.200;5.792;2022-10-18T07:00:12;13.73;;;3.40;;
53309;SDS011;39197;53.200;5.792;2022-10-18T07:02:38;16.02;;;3.75;;
53309;SDS011;39197;53.200;5.792;2022-10-18T07:05:07;13.40;;;3.38;;
53309;SDS011;39197;53.200;5.792;2022-10-18T07:07:34;16.58;;;3.08;;
53309;SDS011;39197;53.200;5.792;2022-10-18T07:09:59;15.88;;;3.30;;
53309;SDS011;39197;53.200;5.792;2022-10-18T07:12:25;13.35;;;3.78;;
53309;SDS011;39197;53.200;5.792;2022-10-18T07:14:50;13.63;;;2.95;;
53309;SDS011;39197;53.200;5.792;2022-10-18T07:17:16;12.48;;;3.15;;
53309;SDS011;39197;53.200;5.792;2022-10-18T07:19:42;16.13;;;2.97;;
53309;SDS011;39197;53.200;5.792;2022-10-18T07:22:07;12.38;;;2.38;;
53309;SDS011;39197;53.200;5.792;2022-10-18T07:24:33;8.52;;;2.38;;
53309;SDS011;39197;53.200;5.792;2022-10-18T07:26:58;18.05;;;3.35;;
53309;SDS011;39197;53.200;5.792;2022-10-18T07:29:24;16.25;;;2.50;;
53309;SDS011;39197;53.200;5.792;2022-10-18T07:31:49;18.95;;;2.30;;
53309;SDS011;39197;53.200;5.792;2022-10-18T07:34:15;9.27;;;2.38;;
53309;SDS011;39197;53.200;5.792;2022-10-18T07:36:40;9.98;;;1.77;;
53309;SDS011;39197;53.200;5.792;2022-10-18T07:39:06;8.48;;;1.55;;
53309;SDS011;39197;53.200;5.792;2022-10-18T07:41:32;19.42;;;2.17;;
53309;SDS011;39197;53.200;5.792;2022-10-18T07:43:58;15.57;;;2.50;;
53309;SDS011;39197;53.200;5.792;2022-10-18T07:46:24;13.00;;;1.73;;
53309;SDS011;39197;53.200;5.792;2022-10-18T07:48:50;10.55;;;1.25;;
53309;SDS011;39197;53.200;5.792;2022-10-18T07:51:17;15.48;;;1.55;;
53309;SDS011;39197;53.200;5.792;2022-10-18T07:53:43;10.77;;;1.55;;
53309;SDS011;39197;53.200;5.792;2022-10-18T07:56:10;13.80;;;2.38;;
53309;SDS011;39197;53.200;5.792;2022-10-18T07:58:44;7.18;;;1.58;;
53309;SDS011;39197;53.200;5.792;2022-10-18T08:01:11;9.40;;;1.38;;
53309;SDS011;39197;53.200;5.792;2022-10-18T08:03:38;6.25;;;1.15;;
53309;SDS011;39197;53.200;5.792;2022-10-18T08:06:05;9.23;;;1.38;;
53309;SDS011;39197;53.200;5.792;2022-10-18T08:08:33;6.75;;;1.33;;
53309;SDS011;39197;53.200;5.792;2022-10-18T08:11:03;10.10;;;1.25;;
53309;SDS011;39197;53.200;5.792;2022-10-18T08:13:30;8.38;;;1.38;;
53309;SDS011;39197;53.200;5.792;2022-10-18T08:16:03;7.97;;;1.27;;
53309;SDS011;39197;53.200;5.792;2022-10-18T08:18:31;6.78;;;1.73;;
53309;SDS011;39197;53.200;5.792;2022-10-18T08:21:00;8.77;;;1.35;;
53309;SDS011;39197;53.200;5.792;2022-10-18T08:23:27;11.13;;;1.95;;
53309;SDS011;39197;53.200;5.792;2022-10-18T08:25:52;10.70;;;1.80;;
53309;SDS011;39197;53.200;5.792;2022-10-18T08:28:18;9.45;;;1.90;;
53309;SDS011;39197;53.200;5.792;2022-10-18T08:30:44;10.23;;;1.60;;
53309;SDS011;39197;53.200;5.792;2022-10-18T08:33:09;11.75;;;1.98;;
53309;SDS011;39197;53.200;5.792;2022-10-18T08:35:35;9.23;;;2.17;;
53309;SDS011;39197;53.200;5.792;2022-10-18T08:38:01;12.20;;;1.58;;
53309;SDS011;39197;53.200;5.792;2022-10-18T08:40:26;10.52;;;2.08;;
53309;SDS011;39197;53.200;5.792;2022-10-18T08:45:34;11.95;;;2.08;;
53309;SDS011;39197;53.200;5.792;2022-10-18T08:48:03;9.38;;;1.95;;
53309;SDS011;39197;53.200;5.792;2022-10-18T08:50:32;9.90;;;1.52;;
53309;SDS011;39197;53.200;5.792;2022-10-18T08:53:15;9.13;;;2.35;;
53309;SDS011;39197;53.200;5.792;2022-10-18T08:55:48;10.20;;;2.15;;
53309;SDS011;39197;53.200;5.792;2022-10-18T08:58:18;7.55;;;1.50;;
53309;SDS011;39197;53.200;5.792;2022-10-18T09:00:48;8.55;;;1.80;;
53309;SDS011;39197;53.200;5.792;2022-10-18T09:03:56;9.75;;;1.67;;
53309;SDS011;39197;53.200;5.792;2022-10-18T09:06:31;8.02;;;1.67;;
53309;SDS011;39197;53.200;5.792;2022-10-18T09:12:10;13.05;;;2.22;;
53309;SDS011;39197;53.200;5.792;2022-10-18T09:18:12;12.68;;;1.58;;
53309;SDS011;39197;53.200;5.792;2022-10-18T09:20:56;13.30;;;1.85;;
53309;SDS011;39197;53.200;5.792;2022-10-18T09:23:29;8.97;;;2.60;;
53309;SDS011;39197;53.200;5.792;2022-10-18T09:26:05;12.32;;;2.63;;
53309;SDS011;39197;53.200;5.792;2022-10-18T09:28:53;8.85;;;1.50;;
53309;SDS011;39197;53.200;5.792;2022-10-18T09:31:47;10.73;;;2.25;;
53309;SDS011;39197;53.200;5.792;2022-10-18T09:34:25;8.77;;;1.50;;
53309;SDS011;39197;53.200;5.792;2022-10-18T09:37:00;8.13;;;1.75;;
53309;SDS011;39197;53.200;5.792;2022-10-18T09:39:31;12.60;;;1.88;;
53309;SDS011;39197;53.200;5.792;2022-10-18T09:42:02;10.90;;;2.95;;
53309;SDS011;39197;53.200;5.792;2022-10-18T09:47:09;9.90;;;1.70;;
53309;SDS011;39197;53.200;5.792;2022-10-18T09:49:44;8.15;;;1.75;;
53309;SDS011;39197;53.200;5.792;2022-10-18T09:52:14;11.13;;;1.80;;
53309;SDS011;39197;53.200;5.792;2022-10-18T09:55:19;12.23;;;2.40;;
53309;SDS011;39197;53.200;5.792;2022-10-18T09:57:52;9.38;;;1.65;;
53309;SDS011;39197;53.200;5.792;2022-10-18T10:00:24;9.95;;;1.70;;
53309;SDS011;39197;53.200;5.792;2022-10-18T10:02:54;13.10;;;1.65;;
53309;SDS011;39197;53.200;5.792;2022-10-18T10:05:19;11.27;;;2.20;;
53309;SDS011;39197;53.200;5.792;2022-10-18T10:07:46;9.00;;;1.60;;
53309;SDS011;39197;53.200;5.792;2022-10-18T10:10:20;9.80;;;3.47;;
53309;SDS011;39197;53.200;5.792;2022-10-18T10:12:47;7.43;;;1.92;;
53309;SDS011;39197;53.200;5.792;2022-10-18T10:15:25;7.32;;;1.75;;
53309;SDS011;39197;53.200;5.792;2022-10-18T10:18:04;11.80;;;1.90;;
53309;SDS011;39197;53.200;5.792;2022-10-18T10:20:43;10.38;;;1.27;;
53309;SDS011;39197;53.200;5.792;2022-10-18T10:23:19;9.68;;;1.23;;
53309;SDS011;39197;53.200;5.792;2022-10-18T10:25:51;9.27;;;1.58;;
53309;SDS011;39197;53.200;5.792;2022-10-18T10:28:40;10.25;;;1.50;;
53309;SDS011;39197;53.200;5.792;2022-10-18T10:33:41;9.82;;;1.92;;
53309;SDS011;39197;53.200;5.792;2022-10-18T10:36:18;9.50;;;1.48;;
53309;SDS011;39197;53.200;5.792;2022-10-18T10:38:45;12.85;;;1.80;;
53309;SDS011;39197;53.200;5.792;2022-10-18T10:41:25;11.93;;;1.55;;
53309;SDS011;39197;53.200;5.792;2022-10-18T10:43:51;10.00;;;1.30;;
53309;SDS011;39197;53.200;5.792;2022-10-18T10:46:18;12.60;;;1.60;;
53309;SDS011;39197;53.200;5.792;2022-10-18T10:51:10;9.90;;;2.42;;
53309;SDS011;39197;53.200;5.792;2022-10-18T10:53:41;9.25;;;1.80;;
53309;SDS011;39197;53.200;5.792;2022-10-18T10:56:49;8.65;;;1.48;;
53309;SDS011;39197;53.200;5.792;2022-10-18T10:59:19;7.75;;;1.25;;
53309;SDS011;39197;53.200;5.792;2022-10-18T11:01:45;10.95;;;1.80;;
53309;SDS011;39197;53.200;5.792;2022-10-18T11:04:26;10.75;;;1.67;;
53309;SDS011;39197;53.200;5.792;2022-10-18T11:12:19;10.77;;;1.98;;
53309;SDS011;39197;53.200;5.792;2022-10-18T11:15:02;12.35;;;2.08;;
53309;SDS011;39197;53.200;5.792;2022-10-18T11:20:24;11.50;;;2.05;;
53309;SDS011;39197;53.200;5.792;2022-10-18T11:23:10;8.85;;;1.17;;
53309;SDS011;39197;53.200;5.792;2022-10-18T11:25:40;11.75;;;1.85;;
53309;SDS011;39197;53.200;5.792;2022-10-18T11:31:17;11.55;;;1.65;;
53309;SDS011;39197;53.200;5.792;2022-10-18T11:36:59;11.15;;;2.00;;
53309;SDS011;39197;53.200;5.792;2022-10-18T11:40:00;7.90;;;1.75;;
53309;SDS011;39197;53.200;5.792;2022-10-18T11:45:31;10.02;;;1.85;;
53309;SDS011;39197;53.200;5.792;2022-10-18T11:56:19;12.00;;;2.85;;
53309;SDS011;39197;53.200;5.792;2022-10-18T12:04:41;8.32;;;1.52;;
53309;SDS011;39197;53.200;5.792;2022-10-18T12:07:14;8.32;;;1.30;;
53309;SDS011;39197;53.200;5.792;2022-10-18T12:09:44;8.90;;;0.90;;
53309;SDS011;39197;53.200;5.792;2022-10-18T12:12:30;9.18;;;1.55;;
53309;SDS011;39197;53.200;5.792;2022-10-18T12:15:34;10.43;;;3.13;;
53309;SDS011;39197;53.200;5.792;2022-10-18T12:17:53;11.30;;;1.38;;
53309;SDS011;39197;53.200;5.792;2022-10-18T12:25:32;8.40;;;1.42;;
53309;SDS011;39197;53.200;5.792;2022-10-18T12:28:15;8.00;;;1.58;;
53309;SDS011;39197;53.200;5.792;2022-10-18T12:30:58;10.30;;;1.70;;
53309;SDS011;39197;53.200;5.792;2022-10-18T12:33:37;12.02;;;1.77;;
53309;SDS011;39197;53.200;5.792;2022-10-18T12:39:06;9.02;;;1.30;;
53309;SDS011;39197;53.200;5.792;2022-10-18T12:41:41;9.73;;;1.52;;
53309;SDS011;39197;53.200;5.792;2022-10-18T12:44:23;9.13;;;1.48;;
53309;SDS011;39197;53.200;5.792;2022-10-18T12:46:56;9.10;;;1.92;;
53309;SDS011;39197;53.200;5.792;2022-10-18T12:49:28;10.73;;;2.00;;
53309;SDS011;39197;53.200;5.792;2022-10-18T12:51:57;9.90;;;1.40;;
53309;SDS011;39197;53.200;5.792;2022-10-18T12:56:54;10.57;;;1.40;;
53309;SDS011;39197;53.200;5.792;2022-10-18T13:09:28;7.40;;;1.75;;
53309;SDS011;39197;53.200;5.792;2022-10-18T13:12:34;7.82;;;1.58;;
53309;SDS011;39197;53.200;5.792;2022-10-18T13:14:51;7.45;;;1.20;;
53309;SDS011;39197;53.200;5.792;2022-10-18T13:17:34;8.25;;;1.90;;
53309;SDS011;39197;53.200;5.792;2022-10-18T13:20:11;11.40;;;1.90;;
53309;SDS011;39197;53.200;5.792;2022-10-18T13:28:27;9.70;;;2.03;;
53309;SDS011;39197;53.200;5.792;2022-10-18T13:38:45;10.50;;;1.92;;
53309;SDS011;39197;53.200;5.792;2022-10-18T13:41:21;8.27;;;1.33;;
53309;SDS011;39197;53.200;5.792;2022-10-18T13:49:16;8.10;;;2.47;;
53309;SDS011;39197;53.200;5.792;2022-10-18T13:54:37;10.27;;;3.05;;
53309;SDS011;39197;53.200;5.792;2022-10-18T14:08:15;6.75;;;2.17;;
53309;SDS011;39197;53.200;5.792;2022-10-18T14:13:27;8.13;;;1.60;;
53309;SDS011;39197;53.200;5.792;2022-10-18T14:16:04;6.30;;;2.15;;
53309;SDS011;39197;53.200;5.792;2022-10-18T14:18:40;9.65;;;1.90;;
53309;SDS011;39197;53.200;5.792;2022-10-18T14:21:15;15.07;;;3.30;;
53309;SDS011;39197;53.200;5.792;2022-10-18T14:23:47;20.15;;;9.38;;
53309;SDS011;39197;53.200;5.792;2022-10-18T14:26:15;11.93;;;4.50;;
53309;SDS011;39197;53.200;5.792;2022-10-18T14:28:42;12.10;;;6.32;;
53309;SDS011;39197;53.200;5.792;2022-10-18T14:31:12;12.13;;;1.98;;
53309;SDS011;39197;53.200;5.792;2022-10-18T14:33:47;8.18;;;1.90;;
53309;SDS011;39197;53.200;5.792;2022-10-18T14:38:50;10.45;;;3.00;;
53309;SDS011;39197;53.200;5.792;2022-10-18T14:43:51;11.07;;;3.97;;
53309;SDS011;39197;53.200;5.792;2022-10-18T14:46:29;11.13;;;2.85;;
53309;SDS011;39197;53.200;5.792;2022-10-18T14:49:08;11.88;;;1.75;;
53309;SDS011;39197;53.200;5.792;2022-10-18T14:51:36;8.55;;;2.15;;
53309;SDS011;39197;53.200;5.792;2022-10-18T14:54:05;8.40;;;2.40;;
53309;SDS011;39197;53.200;5.792;2022-10-18T14:56:36;12.82;;;2.17;;
53309;SDS011;39197;53.200;5.792;2022-10-18T14:59:04;7.35;;;1.77;;
53309;SDS011;39197;53.200;5.792;2022-10-18T15:01:36;9.00;;;1.88;;
53309;SDS011;39197;53.200;5.792;2022-10-18T15:04:04;8.15;;;1.85;;
53309;SDS011;39197;53.200;5.792;2022-10-18T15:06:33;10.00;;;1.50;;
53309;SDS011;39197;53.200;5.792;2022-10-18T15:09:00;6.45;;;1.73;;
53309;SDS011;39197;53.200;5.792;2022-10-18T15:11:30;8.15;;;4.28;;
53309;SDS011;39197;53.200;5.792;2022-10-18T15:14:01;8.60;;;2.80;;
53309;SDS011;39197;53.200;5.792;2022-10-18T15:16:32;6.75;;;1.92;;
53309;SDS011;39197;53.200;5.792;2022-10-18T15:19:05;7.20;;;1.30;;
53309;SDS011;39197;53.200;5.792;2022-10-18T15:21:35;8.25;;;1.88;;
53309;SDS011;39197;53.200;5.792;2022-10-18T15:29:38;8.23;;;2.97;;
53309;SDS011;39197;53.200;5.792;2022-10-18T15:32:15;8.88;;;2.33;;
53309;SDS011;39197;53.200;5.792;2022-10-18T15:34:42;8.07;;;2.67;;
53309;SDS011;39197;53.200;5.792;2022-10-18T15:37:14;9.25;;;1.10;;
53309;SDS011;39197;53.200;5.792;2022-10-18T15:42:48;7.15;;;2.55;;
53309;SDS011;39197;53.200;5.792;2022-10-18T15:56:50;8.20;;;2.97;;
53309;SDS011;39197;53.200;5.792;2022-10-18T15:58:59;7.57;;;1.52;;
53309;SDS011;39197;53.200;5.792;2022-10-18T16:04:12;12.25;;;1.77;;
53309;SDS011;39197;53.200;5.792;2022-10-18T16:06:42;9.75;;;1.73;;
53309;SDS011;39197;53.200;5.792;2022-10-18T16:09:08;9.00;;;1.38;;
53309;SDS011;39197;53.200;5.792;2022-10-18T16:11:40;6.78;;;2.35;;
53309;SDS011;39197;53.200;5.792;2022-10-18T16:14:05;14.80;;;3.75;;
53309;SDS011;39197;53.200;5.792;2022-10-18T16:16:31;11.30;;;3.60;;
53309;SDS011;39197;53.200;5.792;2022-10-18T16:18:57;10.23;;;3.35;;
53309;SDS011;39197;53.200;5.792;2022-10-18T16:21:24;8.95;;;2.53;;
53309;SDS011;39197;53.200;5.792;2022-10-18T16:23:54;9.38;;;2.85;;
53309;SDS011;39197;53.200;5.792;2022-10-18T16:26:21;10.93;;;3.63;;
53309;SDS011;39197;53.200;5.792;2022-10-18T16:28:48;9.88;;;2.85;;
53309;SDS011;39197;53.200;5.792;2022-10-18T16:31:18;7.18;;;1.92;;
53309;SDS011;39197;53.200;5.792;2022-10-18T16:33:45;10.93;;;1.63;;
53309;SDS011;39197;53.200;5.792;2022-10-18T16:36:16;7.05;;;1.38;;
53309;SDS011;39197;53.200;5.792;2022-10-18T16:38:53;7.93;;;1.40;;
53309;SDS011;39197;53.200;5.792;2022-10-18T16:41:19;7.60;;;1.95;;
53309;SDS011;39197;53.200;5.792;2022-10-18T16:43:46;7.97;;;2.08;;
53309;SDS011;39197;53.200;5.792;2022-10-18T16:46:14;5.93;;;1.00;;
53309;SDS011;39197;53.200;5.792;2022-10-18T16:48:42;4.85;;;0.90;;
53309;SDS011;39197;53.200;5.792;2022-10-18T16:51:08;8.82;;;1.13;;
53309;SDS011;39197;53.200;5.792;2022-10-18T16:53:34;9.13;;;2.22;;
53309;SDS011;39197;53.200;5.792;2022-10-18T16:56:01;16.23;;;8.55;;
53309;SDS011;39197;53.200;5.792;2022-10-18T16:58:28;7.53;;;1.80;;
53309;SDS011;39197;53.200;5.792;2022-10-18T17:00:56;9.82;;;3.72;;
53309;SDS011;39197;53.200;5.792;2022-10-18T17:03:22;8.93;;;2.60;;
53309;SDS011;39197;53.200;5.792;2022-10-18T17:05:49;10.27;;;2.33;;
53309;SDS011;39197;53.200;5.792;2022-10-18T17:08:18;8.43;;;3.75;;
53309;SDS011;39197;53.200;5.792;2022-10-18T17:10:49;8.02;;;2.53;;
53309;SDS011;39197;53.200;5.792;2022-10-18T17:13:17;9.30;;;2.65;;
53309;SDS011;39197;53.200;5.792;2022-10-18T17:15:43;5.95;;;1.50;;
53309;SDS011;39197;53.200;5.792;2022-10-18T17:18:10;10.65;;;4.70;;
53309;SDS011;39197;53.200;5.792;2022-10-18T17:20:40;7.60;;;4.72;;
53309;SDS011;39197;53.200;5.792;2022-10-18T17:23:06;6.15;;;1.63;;
53309;SDS011;39197;53.200;5.792;2022-10-18T17:25:33;4.80;;;1.17;;
53309;SDS011;39197;53.200;5.792;2022-10-18T17:28:03;6.97;;;1.48;;
53309;SDS011;39197;53.200;5.792;2022-10-18T17:30:29;7.60;;;1.85;;
53309;SDS011;39197;53.200;5.792;2022-10-18T17:32:54;14.15;;;3.13;;